sensor_id;sensor_type;location;lat;lon;timestamp;P1;durP1;ratioP1;P2;durP2;ratioP2
53391;SDS011;41667;51.922;8.850;2023-04-06T00:01:41;10.02;;;5.47;;
53391;SDS011;41667;51.922;8.850;2023-04-06T00:04:06;9.35;;;5.03;;
53391;SDS011;41667;51.922;8.850;2023-04-06T00:06:32;6.32;;;5.55;;
53391;SDS011;41667;51.922;8.850;2023-04-06T00:08:57;10.70;;;5.60;;
53391;SDS011;41667;51.922;8.850;2023-04-06T00:11:22;6.07;;;5.35;;
53391;SDS011;41667;51.922;8.850;2023-04-06T00:13:48;5.95;;;5.35;;
53391;SDS011;41667;51.922;8.850;2023-04-06T00:16:13;6.70;;;4.60;;
53391;SDS011;41667;51.922;8.850;2023-04-06T00:18:38;7.47;;;5.40;;
53391;SDS011;41667;51.922;8.850;2023-04-06T00:21:03;11.23;;;6.00;;
53391;SDS011;41667;51.922;8.850;2023-04-06T00:23:28;7.90;;;5.47;;
53391;SDS011;41667;51.922;8.850;2023-04-06T00:25:54;7.80;;;5.53;;
53391;SDS011;41667;51.922;8.850;2023-04-06T00:28:20;6.97;;;5.30;;
53391;SDS011;41667;51.922;8.850;2023-04-06T00:30:50;6.07;;;5.43;;
53391;SDS011;41667;51.922;8.850;2023-04-06T00:33:17;5.43;;;4.47;;
53391;SDS011;41667;51.922;8.850;2023-04-06T00:35:42;5.78;;;5.13;;
53391;SDS011;41667;51.922;8.850;2023-04-06T00:38:07;6.38;;;5.57;;
53391;SDS011;41667;51.922;8.850;2023-04-06T00:40:32;7.65;;;5.25;;
53391;SDS011;41667;51.922;8.850;2023-04-06T00:42:59;8.52;;;5.38;;
53391;SDS011;41667;51.922;8.850;2023-04-06T00:45:25;7.57;;;4.88;;
53391;SDS011;41667;51.922;8.850;2023-04-06T00:47:50;8.63;;;5.50;;
53391;SDS011;41667;51.922;8.850;2023-04-06T00:50:15;11.33;;;5.47;;
53391;SDS011;41667;51.922;8.850;2023-04-06T00:52:41;7.10;;;5.50;;
53391;SDS011;41667;51.922;8.850;2023-04-06T00:55:06;6.97;;;5.60;;
53391;SDS011;41667;51.922;8.850;2023-04-06T00:57:32;7.80;;;5.28;;
53391;SDS011;41667;51.922;8.850;2023-04-06T00:59:57;6.50;;;5.45;;
53391;SDS011;41667;51.922;8.850;2023-04-06T01:02:23;7.88;;;6.20;;
53391;SDS011;41667;51.922;8.850;2023-04-06T01:04:48;6.97;;;5.72;;
53391;SDS011;41667;51.922;8.850;2023-04-06T01:07:13;7.83;;;6.07;;
53391;SDS011;41667;51.922;8.850;2023-04-06T01:09:38;12.43;;;5.60;;
53391;SDS011;41667;51.922;8.850;2023-04-06T01:12:06;7.50;;;5.75;;
53391;SDS011;41667;51.922;8.850;2023-04-06T01:14:31;6.87;;;5.93;;
53391;SDS011;41667;51.922;8.850;2023-04-06T01:16:57;8.20;;;5.67;;
53391;SDS011;41667;51.922;8.850;2023-04-06T01:19:22;6.55;;;5.43;;
53391;SDS011;41667;51.922;8.850;2023-04-06T01:21:48;6.88;;;5.90;;
53391;SDS011;41667;51.922;8.850;2023-04-06T01:24:15;6.93;;;5.93;;
53391;SDS011;41667;51.922;8.850;2023-04-06T01:26:40;13.93;;;5.97;;
53391;SDS011;41667;51.922;8.850;2023-04-06T01:29:05;9.05;;;5.75;;
53391;SDS011;41667;51.922;8.850;2023-04-06T01:31:30;7.65;;;5.50;;
53391;SDS011;41667;51.922;8.850;2023-04-06T01:33:55;7.50;;;5.43;;
53391;SDS011;41667;51.922;8.850;2023-04-06T01:36:21;9.63;;;6.50;;
53391;SDS011;41667;51.922;8.850;2023-04-06T01:38:46;10.30;;;6.60;;
53391;SDS011;41667;51.922;8.850;2023-04-06T01:41:11;8.25;;;6.32;;
53391;SDS011;41667;51.922;8.850;2023-04-06T01:43:36;12.00;;;6.45;;
53391;SDS011;41667;51.922;8.850;2023-04-06T01:46:01;9.32;;;5.60;;
53391;SDS011;41667;51.922;8.850;2023-04-06T01:48:27;7.30;;;5.85;;
53391;SDS011;41667;51.922;8.850;2023-04-06T01:50:52;8.65;;;6.47;;
53391;SDS011;41667;51.922;8.850;2023-04-06T01:53:17;11.60;;;6.68;;
53391;SDS011;41667;51.922;8.850;2023-04-06T01:55:42;9.23;;;6.15;;
53391;SDS011;41667;51.922;8.850;2023-04-06T01:58:07;11.20;;;5.97;;
53391;SDS011;41667;51.922;8.850;2023-04-06T02:00:32;8.30;;;6.18;;
53391;SDS011;41667;51.922;8.850;2023-04-06T02:02:57;10.83;;;6.47;;
53391;SDS011;41667;51.922;8.850;2023-04-06T02:05:23;7.03;;;6.25;;
53391;SDS011;41667;51.922;8.850;2023-04-06T02:07:48;9.02;;;5.95;;
53391;SDS011;41667;51.922;8.850;2023-04-06T02:10:14;12.13;;;7.38;;
53391;SDS011;41667;51.922;8.850;2023-04-06T02:12:39;10.98;;;6.97;;
53391;SDS011;41667;51.922;8.850;2023-04-06T02:15:04;10.98;;;6.03;;
53391;SDS011;41667;51.922;8.850;2023-04-06T02:17:30;7.32;;;6.55;;
53391;SDS011;41667;51.922;8.850;2023-04-06T02:19:55;7.03;;;6.32;;
53391;SDS011;41667;51.922;8.850;2023-04-06T02:22:20;9.95;;;6.13;;
53391;SDS011;41667;51.922;8.850;2023-04-06T02:24:45;7.30;;;6.60;;
53391;SDS011;41667;51.922;8.850;2023-04-06T02:27:11;8.35;;;6.40;;
53391;SDS011;41667;51.922;8.850;2023-04-06T02:29:36;11.57;;;7.68;;
53391;SDS011;41667;51.922;8.850;2023-04-06T02:32:01;12.90;;;5.97;;
53391;SDS011;41667;51.922;8.850;2023-04-06T02:34:27;8.43;;;6.20;;
53391;SDS011;41667;51.922;8.850;2023-04-06T02:36:52;8.20;;;6.37;;
53391;SDS011;41667;51.922;8.850;2023-04-06T02:39:17;13.03;;;7.30;;
53391;SDS011;41667;51.922;8.850;2023-04-06T02:41:42;8.75;;;6.93;;
53391;SDS011;41667;51.922;8.850;2023-04-06T02:44:07;7.03;;;6.30;;
53391;SDS011;41667;51.922;8.850;2023-04-06T02:46:33;8.55;;;6.50;;
53391;SDS011;41667;51.922;8.850;2023-04-06T02:48:58;7.07;;;6.32;;
53391;SDS011;41667;51.922;8.850;2023-04-06T02:51:25;8.32;;;6.63;;
53391;SDS011;41667;51.922;8.850;2023-04-06T02:53:50;13.02;;;7.07;;
53391;SDS011;41667;51.922;8.850;2023-04-06T02:56:15;8.18;;;5.90;;
53391;SDS011;41667;51.922;8.850;2023-04-06T02:58:40;9.38;;;6.88;;
53391;SDS011;41667;51.922;8.850;2023-04-06T03:01:06;9.40;;;7.22;;
53391;SDS011;41667;51.922;8.850;2023-04-06T03:03:31;10.20;;;7.38;;
53391;SDS011;41667;51.922;8.850;2023-04-06T03:05:56;9.07;;;5.93;;
53391;SDS011;41667;51.922;8.850;2023-04-06T03:08:23;7.15;;;5.63;;
53391;SDS011;41667;51.922;8.850;2023-04-06T03:10:48;8.80;;;6.70;;
53391;SDS011;41667;51.922;8.850;2023-04-06T03:13:13;9.82;;;6.57;;
53391;SDS011;41667;51.922;8.850;2023-04-06T03:15:39;10.38;;;6.78;;
53391;SDS011;41667;51.922;8.850;2023-04-06T03:18:04;10.18;;;6.43;;
53391;SDS011;41667;51.922;8.850;2023-04-06T03:20:29;10.27;;;6.77;;
53391;SDS011;41667;51.922;8.850;2023-04-06T03:22:55;12.48;;;7.72;;
53391;SDS011;41667;51.922;8.850;2023-04-06T03:25:20;10.65;;;6.20;;
53391;SDS011;41667;51.922;8.850;2023-04-06T03:27:45;8.93;;;7.25;;
53391;SDS011;41667;51.922;8.850;2023-04-06T03:30:10;9.38;;;6.78;;
53391;SDS011;41667;51.922;8.850;2023-04-06T03:32:36;8.90;;;6.93;;
53391;SDS011;41667;51.922;8.850;2023-04-06T03:35:01;8.85;;;6.82;;
53391;SDS011;41667;51.922;8.850;2023-04-06T03:37:26;9.53;;;6.90;;
53391;SDS011;41667;51.922;8.850;2023-04-06T03:39:51;11.15;;;6.72;;
53391;SDS011;41667;51.922;8.850;2023-04-06T03:42:17;10.70;;;7.63;;
53391;SDS011;41667;51.922;8.850;2023-04-06T03:44:42;11.53;;;6.90;;
53391;SDS011;41667;51.922;8.850;2023-04-06T03:47:07;10.13;;;6.55;;
53391;SDS011;41667;51.922;8.850;2023-04-06T03:49:32;10.10;;;6.75;;
53391;SDS011;41667;51.922;8.850;2023-04-06T03:51:57;9.05;;;7.50;;
53391;SDS011;41667;51.922;8.850;2023-04-06T03:54:22;7.78;;;6.90;;
53391;SDS011;41667;51.922;8.850;2023-04-06T03:56:47;12.77;;;6.77;;
53391;SDS011;41667;51.922;8.850;2023-04-06T03:59:13;13.35;;;6.25;;
53391;SDS011;41667;51.922;8.850;2023-04-06T04:01:38;8.82;;;7.28;;
53391;SDS011;41667;51.922;8.850;2023-04-06T04:04:04;11.50;;;7.63;;
53391;SDS011;41667;51.922;8.850;2023-04-06T04:06:29;10.93;;;7.55;;
53391;SDS011;41667;51.922;8.850;2023-04-06T04:08:55;10.13;;;7.03;;
53391;SDS011;41667;51.922;8.850;2023-04-06T04:11:20;7.82;;;6.63;;
53391;SDS011;41667;51.922;8.850;2023-04-06T04:13:45;10.25;;;6.68;;
53391;SDS011;41667;51.922;8.850;2023-04-06T04:16:10;17.30;;;7.03;;
53391;SDS011;41667;51.922;8.850;2023-04-06T04:18:35;9.43;;;7.13;;
53391;SDS011;41667;51.922;8.850;2023-04-06T04:21:01;7.38;;;6.60;;
53391;SDS011;41667;51.922;8.850;2023-04-06T04:23:26;12.15;;;6.18;;
53391;SDS011;41667;51.922;8.850;2023-04-06T04:25:51;8.63;;;6.57;;
53391;SDS011;41667;51.922;8.850;2023-04-06T04:28:16;14.00;;;7.00;;
53391;SDS011;41667;51.922;8.850;2023-04-06T04:30:42;7.65;;;6.32;;
53391;SDS011;41667;51.922;8.850;2023-04-06T04:33:07;8.63;;;6.28;;
53391;SDS011;41667;51.922;8.850;2023-04-06T04:35:32;9.65;;;6.95;;
53391;SDS011;41667;51.922;8.850;2023-04-06T04:37:57;8.90;;;6.47;;
53391;SDS011;41667;51.922;8.850;2023-04-06T04:40:22;8.80;;;6.43;;
53391;SDS011;41667;51.922;8.850;2023-04-06T04:42:48;8.48;;;6.50;;
53391;SDS011;41667;51.922;8.850;2023-04-06T04:45:13;16.48;;;7.72;;
53391;SDS011;41667;51.922;8.850;2023-04-06T04:47:39;9.15;;;6.90;;
53391;SDS011;41667;51.922;8.850;2023-04-06T04:50:04;12.57;;;6.82;;
53391;SDS011;41667;51.922;8.850;2023-04-06T04:52:30;8.90;;;7.68;;
53391;SDS011;41667;51.922;8.850;2023-04-06T04:54:55;9.85;;;7.93;;
53391;SDS011;41667;51.922;8.850;2023-04-06T04:57:20;8.02;;;6.22;;
53391;SDS011;41667;51.922;8.850;2023-04-06T04:59:45;8.18;;;6.53;;
53391;SDS011;41667;51.922;8.850;2023-04-06T05:02:10;10.50;;;6.93;;
53391;SDS011;41667;51.922;8.850;2023-04-06T05:04:35;12.43;;;7.63;;
53391;SDS011;41667;51.922;8.850;2023-04-06T05:09:29;11.23;;;8.10;;
53391;SDS011;41667;51.922;8.850;2023-04-06T05:11:54;15.82;;;7.95;;
53391;SDS011;41667;51.922;8.850;2023-04-06T05:14:20;13.48;;;7.68;;
53391;SDS011;41667;51.922;8.850;2023-04-06T05:16:45;9.20;;;6.95;;
53391;SDS011;41667;51.922;8.850;2023-04-06T05:19:10;10.57;;;7.75;;
53391;SDS011;41667;51.922;8.850;2023-04-06T05:21:36;12.65;;;7.75;;
53391;SDS011;41667;51.922;8.850;2023-04-06T05:24:01;11.50;;;7.57;;
53391;SDS011;41667;51.922;8.850;2023-04-06T05:26:27;10.65;;;7.95;;
53391;SDS011;41667;51.922;8.850;2023-04-06T05:28:52;8.48;;;7.15;;
53391;SDS011;41667;51.922;8.850;2023-04-06T05:31:17;10.10;;;6.43;;
53391;SDS011;41667;51.922;8.850;2023-04-06T05:33:42;12.38;;;8.35;;
53391;SDS011;41667;51.922;8.850;2023-04-06T05:36:08;10.57;;;7.53;;
53391;SDS011;41667;51.922;8.850;2023-04-06T05:38:33;8.07;;;6.88;;
53391;SDS011;41667;51.922;8.850;2023-04-06T05:40:58;16.83;;;7.87;;
53391;SDS011;41667;51.922;8.850;2023-04-06T05:43:23;14.32;;;8.35;;
53391;SDS011;41667;51.922;8.850;2023-04-06T05:45:48;13.85;;;8.50;;
53391;SDS011;41667;51.922;8.850;2023-04-06T05:48:13;15.75;;;7.78;;
53391;SDS011;41667;51.922;8.850;2023-04-06T05:50:38;17.35;;;8.25;;
53391;SDS011;41667;51.922;8.850;2023-04-06T05:53:04;11.07;;;7.40;;
53391;SDS011;41667;51.922;8.850;2023-04-06T05:55:29;9.63;;;8.02;;
53391;SDS011;41667;51.922;8.850;2023-04-06T05:57:54;10.57;;;8.13;;
53391;SDS011;41667;51.922;8.850;2023-04-06T06:00:19;13.77;;;8.23;;
53391;SDS011;41667;51.922;8.850;2023-04-06T06:02:44;14.32;;;8.32;;
53391;SDS011;41667;51.922;8.850;2023-04-06T06:05:10;13.10;;;9.10;;
53391;SDS011;41667;51.922;8.850;2023-04-06T06:07:35;14.32;;;9.30;;
53391;SDS011;41667;51.922;8.850;2023-04-06T06:10:00;13.48;;;8.07;;
53391;SDS011;41667;51.922;8.850;2023-04-06T06:12:26;11.17;;;7.23;;
53391;SDS011;41667;51.922;8.850;2023-04-06T06:14:51;10.80;;;7.73;;
53391;SDS011;41667;51.922;8.850;2023-04-06T06:17:16;12.03;;;8.83;;
53391;SDS011;41667;51.922;8.850;2023-04-06T06:19:41;10.82;;;8.27;;
53391;SDS011;41667;51.922;8.850;2023-04-06T06:22:06;11.90;;;8.45;;
53391;SDS011;41667;51.922;8.850;2023-04-06T06:24:31;10.90;;;7.20;;
53391;SDS011;41667;51.922;8.850;2023-04-06T06:26:57;12.57;;;8.63;;
53391;SDS011;41667;51.922;8.850;2023-04-06T06:29:22;11.60;;;7.93;;
53391;SDS011;41667;51.922;8.850;2023-04-06T06:31:48;12.82;;;8.55;;
53391;SDS011;41667;51.922;8.850;2023-04-06T06:34:14;14.82;;;8.65;;
53391;SDS011;41667;51.922;8.850;2023-04-06T06:36:39;13.70;;;8.75;;
53391;SDS011;41667;51.922;8.850;2023-04-06T06:39:04;16.42;;;9.85;;
53391;SDS011;41667;51.922;8.850;2023-04-06T06:41:30;19.88;;;8.80;;
53391;SDS011;41667;51.922;8.850;2023-04-06T06:43:55;19.58;;;9.98;;
53391;SDS011;41667;51.922;8.850;2023-04-06T06:46:20;14.80;;;9.48;;
53391;SDS011;41667;51.922;8.850;2023-04-06T06:48:45;12.88;;;9.35;;
53391;SDS011;41667;51.922;8.850;2023-04-06T06:51:11;19.50;;;9.48;;
53391;SDS011;41667;51.922;8.850;2023-04-06T06:53:36;11.48;;;9.32;;
53391;SDS011;41667;51.922;8.850;2023-04-06T06:56:01;13.48;;;9.38;;
53391;SDS011;41667;51.922;8.850;2023-04-06T06:58:26;13.65;;;8.73;;
53391;SDS011;41667;51.922;8.850;2023-04-06T07:00:55;15.20;;;9.53;;
53391;SDS011;41667;51.922;8.850;2023-04-06T07:03:20;12.75;;;9.18;;
53391;SDS011;41667;51.922;8.850;2023-04-06T07:05:46;11.02;;;7.85;;
53391;SDS011;41667;51.922;8.850;2023-04-06T07:10:42;10.98;;;8.32;;
53391;SDS011;41667;51.922;8.850;2023-04-06T07:13:08;10.25;;;7.95;;
53391;SDS011;41667;51.922;8.850;2023-04-06T07:15:33;11.77;;;8.05;;
53391;SDS011;41667;51.922;8.850;2023-04-06T07:17:58;15.53;;;8.77;;
53391;SDS011;41667;51.922;8.850;2023-04-06T07:20:24;14.23;;;7.93;;
53391;SDS011;41667;51.922;8.850;2023-04-06T07:22:49;9.53;;;7.87;;
53391;SDS011;41667;51.922;8.850;2023-04-06T07:25:14;10.43;;;7.27;;
53391;SDS011;41667;51.922;8.850;2023-04-06T07:27:39;15.75;;;7.30;;
53391;SDS011;41667;51.922;8.850;2023-04-06T07:30:05;11.52;;;8.05;;
53391;SDS011;41667;51.922;8.850;2023-04-06T07:32:30;13.95;;;7.22;;
53391;SDS011;41667;51.922;8.850;2023-04-06T07:34:56;9.57;;;6.67;;
53391;SDS011;41667;51.922;8.850;2023-04-06T07:37:21;13.15;;;7.88;;
53391;SDS011;41667;51.922;8.850;2023-04-06T07:39:46;13.65;;;7.20;;
53391;SDS011;41667;51.922;8.850;2023-04-06T07:42:12;7.72;;;5.80;;
53391;SDS011;41667;51.922;8.850;2023-04-06T07:44:37;11.23;;;6.95;;
53391;SDS011;41667;51.922;8.850;2023-04-06T07:47:02;9.90;;;7.43;;
53391;SDS011;41667;51.922;8.850;2023-04-06T07:49:27;10.15;;;6.60;;
53391;SDS011;41667;51.922;8.850;2023-04-06T07:51:52;11.00;;;6.95;;
53391;SDS011;41667;51.922;8.850;2023-04-06T07:54:17;10.32;;;6.47;;
53391;SDS011;41667;51.922;8.850;2023-04-06T07:56:42;10.57;;;6.45;;
53391;SDS011;41667;51.922;8.850;2023-04-06T07:59:07;12.10;;;6.97;;
53391;SDS011;41667;51.922;8.850;2023-04-06T08:01:33;8.13;;;6.00;;
53391;SDS011;41667;51.922;8.850;2023-04-06T08:03:58;12.60;;;7.57;;
53391;SDS011;41667;51.922;8.850;2023-04-06T08:06:23;8.43;;;6.55;;
53391;SDS011;41667;51.922;8.850;2023-04-06T08:08:49;9.70;;;6.87;;
53391;SDS011;41667;51.922;8.850;2023-04-06T08:11:14;7.63;;;6.53;;
53391;SDS011;41667;51.922;8.850;2023-04-06T08:13:39;12.82;;;7.30;;
53391;SDS011;41667;51.922;8.850;2023-04-06T08:16:04;6.85;;;5.95;;
53391;SDS011;41667;51.922;8.850;2023-04-06T08:18:29;11.20;;;6.75;;
53391;SDS011;41667;51.922;8.850;2023-04-06T08:20:55;9.50;;;6.17;;
53391;SDS011;41667;51.922;8.850;2023-04-06T08:23:20;8.65;;;6.90;;
53391;SDS011;41667;51.922;8.850;2023-04-06T08:25:45;12.85;;;6.20;;
53391;SDS011;41667;51.922;8.850;2023-04-06T08:28:10;9.23;;;6.07;;
53391;SDS011;41667;51.922;8.850;2023-04-06T08:30:36;7.25;;;6.20;;
53391;SDS011;41667;51.922;8.850;2023-04-06T08:33:02;8.52;;;6.22;;
53391;SDS011;41667;51.922;8.850;2023-04-06T08:35:27;7.93;;;6.07;;
53391;SDS011;41667;51.922;8.850;2023-04-06T08:37:53;8.48;;;5.85;;
53391;SDS011;41667;51.922;8.850;2023-04-06T08:40:19;5.73;;;5.10;;
53391;SDS011;41667;51.922;8.850;2023-04-06T08:42:44;6.90;;;5.53;;
53391;SDS011;41667;51.922;8.850;2023-04-06T08:45:12;8.07;;;5.15;;
53391;SDS011;41667;51.922;8.850;2023-04-06T08:47:37;8.75;;;5.70;;
53391;SDS011;41667;51.922;8.850;2023-04-06T08:50:03;8.23;;;5.53;;
53391;SDS011;41667;51.922;8.850;2023-04-06T08:52:29;7.88;;;5.22;;
53391;SDS011;41667;51.922;8.850;2023-04-06T08:54:56;7.97;;;5.32;;
53391;SDS011;41667;51.922;8.850;2023-04-06T08:57:21;6.55;;;5.43;;
53391;SDS011;41667;51.922;8.850;2023-04-06T08:59:48;7.35;;;5.38;;
53391;SDS011;41667;51.922;8.850;2023-04-06T09:02:15;6.85;;;5.30;;
53391;SDS011;41667;51.922;8.850;2023-04-06T09:04:42;7.05;;;5.47;;
53391;SDS011;41667;51.922;8.850;2023-04-06T09:07:07;7.95;;;5.85;;
53391;SDS011;41667;51.922;8.850;2023-04-06T09:09:32;7.63;;;5.38;;
53391;SDS011;41667;51.922;8.850;2023-04-06T09:11:58;7.32;;;5.00;;
53391;SDS011;41667;51.922;8.850;2023-04-06T09:14:35;8.50;;;4.70;;
53391;SDS011;41667;51.922;8.850;2023-04-06T09:17:01;5.97;;;4.65;;
53391;SDS011;41667;51.922;8.850;2023-04-06T09:19:26;7.88;;;5.00;;
53391;SDS011;41667;51.922;8.850;2023-04-06T09:22:00;5.35;;;4.55;;
53391;SDS011;41667;51.922;8.850;2023-04-06T09:24:26;7.55;;;5.00;;
53391;SDS011;41667;51.922;8.850;2023-04-06T09:26:51;7.50;;;5.07;;
53391;SDS011;41667;51.922;8.850;2023-04-06T09:29:23;7.93;;;5.38;;
53391;SDS011;41667;51.922;8.850;2023-04-06T09:31:49;6.63;;;4.70;;
53391;SDS011;41667;51.922;8.850;2023-04-06T09:34:21;5.97;;;4.85;;
53391;SDS011;41667;51.922;8.850;2023-04-06T09:36:46;8.55;;;5.40;;
53391;SDS011;41667;51.922;8.850;2023-04-06T09:39:12;7.63;;;4.97;;
53391;SDS011;41667;51.922;8.850;2023-04-06T09:41:37;7.63;;;5.72;;
53391;SDS011;41667;51.922;8.850;2023-04-06T09:44:03;7.25;;;5.28;;
53391;SDS011;41667;51.922;8.850;2023-04-06T09:46:30;10.27;;;5.38;;
53391;SDS011;41667;51.922;8.850;2023-04-06T09:48:56;5.63;;;4.13;;
53391;SDS011;41667;51.922;8.850;2023-04-06T09:51:21;8.73;;;4.88;;
53391;SDS011;41667;51.922;8.850;2023-04-06T09:53:48;10.30;;;6.13;;
53391;SDS011;41667;51.922;8.850;2023-04-06T09:56:17;8.85;;;5.97;;
53391;SDS011;41667;51.922;8.850;2023-04-06T09:58:45;11.23;;;5.70;;
53391;SDS011;41667;51.922;8.850;2023-04-06T10:01:15;9.27;;;6.00;;
53391;SDS011;41667;51.922;8.850;2023-04-06T10:03:45;7.55;;;4.97;;
53391;SDS011;41667;51.922;8.850;2023-04-06T10:06:12;8.95;;;5.78;;
53391;SDS011;41667;51.922;8.850;2023-04-06T10:08:38;7.30;;;5.82;;
53391;SDS011;41667;51.922;8.850;2023-04-06T10:11:05;12.23;;;5.63;;
53391;SDS011;41667;51.922;8.850;2023-04-06T10:13:31;8.77;;;5.80;;
53391;SDS011;41667;51.922;8.850;2023-04-06T10:15:56;9.60;;;4.63;;
53391;SDS011;41667;51.922;8.850;2023-04-06T10:18:22;10.00;;;5.78;;
53391;SDS011;41667;51.922;8.850;2023-04-06T10:20:51;7.90;;;5.70;;
53391;SDS011;41667;51.922;8.850;2023-04-06T10:23:27;10.85;;;6.55;;
53391;SDS011;41667;51.922;8.850;2023-04-06T10:25:55;9.07;;;6.75;;
53391;SDS011;41667;51.922;8.850;2023-04-06T10:28:20;12.73;;;6.85;;
53391;SDS011;41667;51.922;8.850;2023-04-06T10:30:45;9.55;;;6.80;;
53391;SDS011;41667;51.922;8.850;2023-04-06T10:35:38;11.65;;;5.97;;
53391;SDS011;41667;51.922;8.850;2023-04-06T10:38:04;11.60;;;7.00;;
53391;SDS011;41667;51.922;8.850;2023-04-06T10:40:30;15.23;;;6.68;;
53391;SDS011;41667;51.922;8.850;2023-04-06T10:43:06;10.18;;;7.32;;
53391;SDS011;41667;51.922;8.850;2023-04-06T10:45:31;9.55;;;6.78;;
53391;SDS011;41667;51.922;8.850;2023-04-06T10:47:56;10.45;;;5.97;;
53391;SDS011;41667;51.922;8.850;2023-04-06T10:50:22;10.75;;;7.13;;
53391;SDS011;41667;51.922;8.850;2023-04-06T10:52:58;9.77;;;6.53;;
53391;SDS011;41667;51.922;8.850;2023-04-06T10:55:23;11.77;;;6.15;;
53391;SDS011;41667;51.922;8.850;2023-04-06T10:57:50;9.23;;;6.55;;
53391;SDS011;41667;51.922;8.850;2023-04-06T11:00:16;9.02;;;5.30;;
53391;SDS011;41667;51.922;8.850;2023-04-06T11:02:41;9.70;;;6.00;;
53391;SDS011;41667;51.922;8.850;2023-04-06T11:05:07;9.90;;;6.28;;
53391;SDS011;41667;51.922;8.850;2023-04-06T11:07:32;8.73;;;6.20;;
53391;SDS011;41667;51.922;8.850;2023-04-06T11:09:57;10.55;;;6.70;;
53391;SDS011;41667;51.922;8.850;2023-04-06T11:12:23;12.73;;;6.95;;
53391;SDS011;41667;51.922;8.850;2023-04-06T11:15:06;10.18;;;7.18;;
53391;SDS011;41667;51.922;8.850;2023-04-06T11:17:33;12.10;;;6.22;;
53391;SDS011;41667;51.922;8.850;2023-04-06T11:19:58;12.75;;;6.63;;
53391;SDS011;41667;51.922;8.850;2023-04-06T11:22:24;9.52;;;6.13;;
53391;SDS011;41667;51.922;8.850;2023-04-06T11:24:49;10.10;;;6.20;;
53391;SDS011;41667;51.922;8.850;2023-04-06T11:27:15;14.43;;;6.97;;
53391;SDS011;41667;51.922;8.850;2023-04-06T11:29:43;8.95;;;6.68;;
53391;SDS011;41667;51.922;8.850;2023-04-06T11:32:10;11.50;;;5.80;;
53391;SDS011;41667;51.922;8.850;2023-04-06T11:34:37;10.30;;;6.30;;
53391;SDS011;41667;51.922;8.850;2023-04-06T11:37:04;8.13;;;6.55;;
53391;SDS011;41667;51.922;8.850;2023-04-06T11:39:32;8.90;;;5.50;;
53391;SDS011;41667;51.922;8.850;2023-04-06T11:42:02;10.15;;;6.22;;
53391;SDS011;41667;51.922;8.850;2023-04-06T11:44:34;13.48;;;6.55;;
53391;SDS011;41667;51.922;8.850;2023-04-06T11:47:00;10.65;;;6.75;;
53391;SDS011;41667;51.922;8.850;2023-04-06T11:49:26;12.75;;;7.55;;
53391;SDS011;41667;51.922;8.850;2023-04-06T11:51:51;10.75;;;6.43;;
53391;SDS011;41667;51.922;8.850;2023-04-06T11:54:17;9.70;;;6.50;;
53391;SDS011;41667;51.922;8.850;2023-04-06T11:56:42;7.85;;;6.30;;
53391;SDS011;41667;51.922;8.850;2023-04-06T11:59:11;12.30;;;7.55;;
53391;SDS011;41667;51.922;8.850;2023-04-06T12:01:44;10.70;;;7.03;;
53391;SDS011;41667;51.922;8.850;2023-04-06T12:04:09;11.77;;;7.13;;
53391;SDS011;41667;51.922;8.850;2023-04-06T12:06:34;12.10;;;7.00;;
53391;SDS011;41667;51.922;8.850;2023-04-06T12:09:00;16.77;;;7.25;;
53391;SDS011;41667;51.922;8.850;2023-04-06T12:11:25;10.77;;;6.65;;
53391;SDS011;41667;51.922;8.850;2023-04-06T12:13:50;12.20;;;7.28;;
53391;SDS011;41667;51.922;8.850;2023-04-06T12:16:15;13.47;;;6.77;;
53391;SDS011;41667;51.922;8.850;2023-04-06T12:18:40;12.60;;;7.40;;
53391;SDS011;41667;51.922;8.850;2023-04-06T12:21:05;13.77;;;8.10;;
53391;SDS011;41667;51.922;8.850;2023-04-06T12:23:30;10.43;;;6.67;;
53391;SDS011;41667;51.922;8.850;2023-04-06T12:25:56;8.67;;;5.90;;
53391;SDS011;41667;51.922;8.850;2023-04-06T12:28:21;11.88;;;7.25;;
53391;SDS011;41667;51.922;8.850;2023-04-06T12:30:48;12.07;;;7.68;;
53391;SDS011;41667;51.922;8.850;2023-04-06T12:33:13;11.27;;;7.80;;
53391;SDS011;41667;51.922;8.850;2023-04-06T12:35:38;14.98;;;8.32;;
53391;SDS011;41667;51.922;8.850;2023-04-06T12:38:03;13.52;;;7.63;;
53391;SDS011;41667;51.922;8.850;2023-04-06T12:40:29;10.23;;;7.32;;
53391;SDS011;41667;51.922;8.850;2023-04-06T12:42:54;11.20;;;7.95;;
53391;SDS011;41667;51.922;8.850;2023-04-06T12:45:19;13.50;;;7.13;;
53391;SDS011;41667;51.922;8.850;2023-04-06T12:47:44;12.77;;;7.35;;
53391;SDS011;41667;51.922;8.850;2023-04-06T12:50:10;12.13;;;7.43;;
53391;SDS011;41667;51.922;8.850;2023-04-06T12:52:35;13.07;;;8.02;;
53391;SDS011;41667;51.922;8.850;2023-04-06T12:55:02;12.45;;;7.40;;
53391;SDS011;41667;51.922;8.850;2023-04-06T12:57:27;11.77;;;7.57;;
53391;SDS011;41667;51.922;8.850;2023-04-06T12:59:52;12.63;;;7.43;;
53391;SDS011;41667;51.922;8.850;2023-04-06T13:02:17;11.57;;;8.23;;
53391;SDS011;41667;51.922;8.850;2023-04-06T13:04:44;14.77;;;8.15;;
53391;SDS011;41667;51.922;8.850;2023-04-06T13:07:10;12.97;;;7.63;;
53391;SDS011;41667;51.922;8.850;2023-04-06T13:09:35;13.57;;;8.57;;
53391;SDS011;41667;51.922;8.850;2023-04-06T13:12:00;9.67;;;7.40;;
53391;SDS011;41667;51.922;8.850;2023-04-06T13:14:25;10.55;;;7.47;;
53391;SDS011;41667;51.922;8.850;2023-04-06T13:16:51;11.00;;;7.35;;
53391;SDS011;41667;51.922;8.850;2023-04-06T13:19:16;12.88;;;7.68;;
53391;SDS011;41667;51.922;8.850;2023-04-06T13:21:41;15.85;;;8.02;;
53391;SDS011;41667;51.922;8.850;2023-04-06T13:24:06;13.25;;;7.78;;
53391;SDS011;41667;51.922;8.850;2023-04-06T13:26:31;15.50;;;7.37;;
53391;SDS011;41667;51.922;8.850;2023-04-06T13:28:56;13.30;;;8.67;;
53391;SDS011;41667;51.922;8.850;2023-04-06T13:31:22;14.37;;;8.13;;
53391;SDS011;41667;51.922;8.850;2023-04-06T13:33:47;14.43;;;8.43;;
53391;SDS011;41667;51.922;8.850;2023-04-06T13:36:12;9.43;;;6.88;;
53391;SDS011;41667;51.922;8.850;2023-04-06T13:38:37;10.73;;;6.50;;
53391;SDS011;41667;51.922;8.850;2023-04-06T13:41:03;10.30;;;6.38;;
53391;SDS011;41667;51.922;8.850;2023-04-06T13:43:29;10.15;;;5.95;;
53391;SDS011;41667;51.922;8.850;2023-04-06T13:45:54;10.98;;;7.05;;
53391;SDS011;41667;51.922;8.850;2023-04-06T13:48:21;9.20;;;5.97;;
53391;SDS011;41667;51.922;8.850;2023-04-06T13:50:46;9.57;;;6.25;;
53391;SDS011;41667;51.922;8.850;2023-04-06T13:53:11;14.10;;;6.73;;
53391;SDS011;41667;51.922;8.850;2023-04-06T13:55:36;10.55;;;7.07;;
53391;SDS011;41667;51.922;8.850;2023-04-06T13:58:02;10.73;;;6.40;;
53391;SDS011;41667;51.922;8.850;2023-04-06T14:00:27;11.95;;;7.13;;
53391;SDS011;41667;51.922;8.850;2023-04-06T14:02:53;11.40;;;7.43;;
53391;SDS011;41667;51.922;8.850;2023-04-06T14:05:19;10.98;;;6.60;;
53391;SDS011;41667;51.922;8.850;2023-04-06T14:07:44;9.15;;;5.72;;
53391;SDS011;41667;51.922;8.850;2023-04-06T14:10:09;11.30;;;6.40;;
53391;SDS011;41667;51.922;8.850;2023-04-06T14:12:39;8.70;;;6.30;;
53391;SDS011;41667;51.922;8.850;2023-04-06T14:15:04;12.02;;;5.78;;
53391;SDS011;41667;51.922;8.850;2023-04-06T14:17:29;11.52;;;7.07;;
53391;SDS011;41667;51.922;8.850;2023-04-06T14:19:55;12.45;;;7.28;;
53391;SDS011;41667;51.922;8.850;2023-04-06T14:22:21;12.48;;;7.28;;
53391;SDS011;41667;51.922;8.850;2023-04-06T14:24:46;13.47;;;7.30;;
53391;SDS011;41667;51.922;8.850;2023-04-06T14:27:11;11.02;;;6.13;;
53391;SDS011;41667;51.922;8.850;2023-04-06T14:29:37;14.60;;;7.68;;
53391;SDS011;41667;51.922;8.850;2023-04-06T14:32:02;10.65;;;7.05;;
53391;SDS011;41667;51.922;8.850;2023-04-06T14:34:27;11.23;;;7.72;;
53391;SDS011;41667;51.922;8.850;2023-04-06T14:36:52;13.63;;;7.33;;
53391;SDS011;41667;51.922;8.850;2023-04-06T14:39:18;11.63;;;6.70;;